createdAt,value
2023-03-23T15:58:13.355Z,99363.64
2023-03-23T16:00:43.954Z,99361.35
2023-03-23T16:03:22.842Z,99363.42
2023-03-23T16:05:52.103Z,99371.25
2023-03-23T16:08:21.415Z,99378.21
2023-03-23T16:10:51.192Z,99377.42
2023-03-23T16:13:19.879Z,99369.67
2023-03-23T16:15:48.872Z,99365.70
2023-03-23T16:18:19.810Z,99369.61
2023-03-23T16:20:49.727Z,99372.69
2023-03-23T16:23:19.026Z,99378.38
2023-03-23T16:25:47.704Z,99382.48
2023-03-23T16:28:17.443Z,99379.23
2023-03-23T16:30:46.274Z,99380.57
2023-03-23T16:33:15.213Z,99380.46
2023-03-23T16:35:44.537Z,99380.73
2023-03-23T16:38:16.699Z,99386.17
2023-03-23T16:40:47.166Z,99387.66
2023-03-23T16:43:16.892Z,99382.82
2023-03-23T16:45:47.473Z,99375.45
2023-03-23T16:48:18.268Z,99380.60
2023-03-23T16:50:48.097Z,99384.89
2023-03-23T16:53:17.484Z,99394.88
2023-03-23T16:55:48.698Z,99395.19
2023-03-23T16:58:18.567Z,99400.91
2023-03-23T17:00:52.743Z,99397.31
2023-03-23T17:03:22.469Z,99395.25
2023-03-23T17:05:52.835Z,99399.91
2023-03-23T17:08:21.718Z,99401.85
2023-03-23T17:10:51.831Z,99405.11
2023-03-23T17:13:21.722Z,99406.27
2023-03-23T17:15:53.789Z,99405.35
2023-03-23T17:18:25.414Z,99413.17
2023-03-23T17:20:55.127Z,99420.90
2023-03-23T17:23:24.890Z,99421.11
2023-03-23T17:25:55.262Z,99423.88
2023-03-23T17:28:24.707Z,99421.34
2023-03-23T17:30:55.097Z,99428.49
2023-03-23T17:33:25.030Z,99431.05
2023-03-23T17:35:55.490Z,99431.79
2023-03-23T17:38:25.761Z,99425.20
2023-03-23T17:40:59.414Z,99427.06
2023-03-23T17:43:30.918Z,99424.94
2023-03-23T17:46:01.261Z,99429.55
2023-03-23T17:48:31.517Z,99423.25
2023-03-23T17:51:02.786Z,99426.48
2023-03-23T17:53:40.353Z,99427.95
2023-03-23T17:56:13.026Z,99432.45
2023-03-23T17:58:42.703Z,99432.95
2023-03-23T18:01:13.996Z,99435.06
2023-03-23T18:03:45.365Z,99436.80
2023-03-23T18:06:15.625Z,99444.00
2023-03-23T18:08:46.519Z,99447.81
2023-03-23T18:11:18.343Z,99446.52
2023-03-23T18:13:49.594Z,99452.96
2023-03-23T18:16:24.398Z,99458.94
2023-03-23T18:18:56.421Z,99462.54
2023-03-23T18:21:27.755Z,99462.01
2023-03-23T18:23:59.527Z,99455.62
2023-03-23T18:26:33.244Z,99453.58
2023-03-23T18:29:04.619Z,99449.92
2023-03-23T18:31:40.724Z,99447.02
2023-03-23T18:34:11.609Z,99451.66
2023-03-23T18:36:42.482Z,99454.91
2023-03-23T18:39:13.604Z,99454.13
2023-03-23T18:41:44.485Z,99459.51
2023-03-23T18:44:16.411Z,99463.85
2023-03-23T18:46:46.744Z,99468.77
2023-03-23T18:49:17.168Z,99473.23
2023-03-23T18:51:50.127Z,99476.67
2023-03-23T18:54:20.526Z,99483.04
2023-03-23T18:56:51.419Z,99486.77
2023-03-23T18:59:25.332Z,99481.98
2023-03-23T19:01:56.518Z,99477.11
2023-03-23T19:04:32.921Z,99479.52
2023-03-23T19:07:04.567Z,99487.66
2023-03-23T19:09:36.225Z,99492.58
2023-03-23T19:12:13.346Z,99490.89
2023-03-23T19:14:45.732Z,99491.52
2023-03-23T19:17:19.254Z,99480.21
2023-03-23T19:19:50.434Z,99470.23
2023-03-23T19:22:22.005Z,99467.25
2023-03-23T19:24:54.950Z,99464.45
2023-03-23T19:27:26.417Z,99465.32
2023-03-23T19:29:56.904Z,99466.23
2023-03-23T19:32:29.922Z,99468.52
2023-03-23T19:35:03.381Z,99473.92
2023-03-23T19:37:45.248Z,99473.63
2023-03-23T19:40:49.877Z,99479.10
2023-03-23T19:43:09.953Z,99479.29
2023-03-23T19:45:42.860Z,99475.20
2023-03-23T19:48:13.926Z,99482.72
2023-03-23T19:50:49.208Z,99481.95
2023-03-23T19:53:21.567Z,99478.40
2023-03-23T19:55:55.189Z,99477.65
2023-03-23T19:58:28.380Z,99477.17
2023-03-23T20:01:03.933Z,99474.92
2023-03-23T20:03:36.815Z,99474.27
2023-03-23T20:06:13.045Z,99476.29
2023-03-23T20:08:48.776Z,99479.39
2023-03-23T20:11:23.314Z,99482.64
2023-03-23T20:13:56.653Z,99492.09
2023-03-23T20:16:29.218Z,99495.10
2023-03-23T20:19:02.929Z,99498.67
2023-03-23T20:21:36.293Z,99499.94
2023-03-23T20:24:09.530Z,99501.29
2023-03-23T20:26:42.518Z,99505.27
2023-03-23T20:29:15.163Z,99504.35
2023-03-23T20:31:47.096Z,99502.91
2023-03-23T20:34:29.728Z,99499.89
2023-03-23T20:37:02.849Z,99503.61
2023-03-23T20:39:38.136Z,99504.12
2023-03-23T20:42:09.092Z,99507.52
2023-03-23T20:44:40.675Z,99507.54
2023-03-23T20:47:14.598Z,99510.20
2023-03-23T20:49:53.184Z,99517.56
2023-03-23T20:52:26.377Z,99518.09
2023-03-23T20:54:57.496Z,99515.64
2023-03-23T20:57:28.041Z,99507.73
2023-03-23T20:59:58.587Z,99506.10
2023-03-23T21:02:30.536Z,99498.37
2023-03-23T21:05:06.991Z,99497.27
2023-03-23T21:07:37.476Z,99494.75
2023-03-23T21:10:10.057Z,99500.64
2023-03-23T21:12:40.307Z,99505.06
2023-03-23T21:15:10.466Z,99502.39
2023-03-23T21:17:41.309Z,99509.23
2023-03-23T21:20:12.411Z,99513.39
2023-03-23T21:22:43.948Z,99511.86
2023-03-23T21:25:15.827Z,99512.39
2023-03-23T21:27:44.609Z,99515.85
2023-03-23T21:30:13.870Z,99519.61
2023-03-23T21:32:43.327Z,99527.00
2023-03-23T21:35:13.025Z,99526.25
2023-03-23T21:37:42.327Z,99528.62
2023-03-23T21:40:14.388Z,99528.85
2023-03-23T21:42:44.707Z,99531.88
2023-03-23T21:45:18.907Z,99531.18
2023-03-23T21:47:48.971Z,99528.39
2023-03-23T21:50:18.349Z,99526.34
2023-03-23T21:52:51.334Z,99523.86
2023-03-23T21:55:20.327Z,99521.20
2023-03-23T21:57:49.308Z,99518.20
2023-03-23T22:00:19.214Z,99514.77
2023-03-23T22:02:49.085Z,99511.80
2023-03-23T22:05:18.418Z,99509.63
2023-03-23T22:07:48.578Z,99510.54
2023-03-23T22:10:17.648Z,99510.24
2023-03-23T22:12:48.274Z,99510.77
2023-03-23T22:15:18.401Z,99507.71
2023-03-23T22:17:47.233Z,99508.61
2023-03-23T22:20:16.182Z,99506.27
2023-03-23T22:22:44.956Z,99511.21
2023-03-23T22:25:14.268Z,99511.69
2023-03-23T22:27:43.366Z,99512.94
2023-03-23T22:30:13.178Z,99511.86
2023-03-23T22:32:41.959Z,99512.94
2023-03-23T22:35:13.110Z,99520.02
2023-03-23T22:37:41.917Z,99518.80
2023-03-23T22:40:12.008Z,99517.19
2023-03-23T22:42:41.106Z,99517.02
2023-03-23T22:45:10.104Z,99511.95
2023-03-23T22:47:39.346Z,99514.46
2023-03-23T22:50:09.833Z,99517.85
2023-03-23T22:52:38.965Z,99510.36
2023-03-23T22:55:09.213Z,99511.22
2023-03-23T22:57:37.948Z,99506.20
2023-03-23T23:00:15.204Z,99506.61
2023-03-23T23:02:44.239Z,99505.36
2023-03-23T23:05:13.694Z,99506.26
2023-03-23T23:07:43.039Z,99504.58
2023-03-23T23:10:11.827Z,99502.44
2023-03-23T23:12:42.674Z,99499.95
2023-03-23T23:15:13.493Z,99498.76
2023-03-23T23:17:42.716Z,99498.44
2023-03-23T23:20:13.261Z,99498.55
2023-03-23T23:22:44.523Z,99492.67
2023-03-23T23:25:14.165Z,99491.88
2023-03-23T23:27:43.470Z,99495.52
2023-03-23T23:30:12.968Z,99490.19
2023-03-23T23:32:43.312Z,99491.27
2023-03-23T23:35:14.242Z,99490.34
2023-03-23T23:37:43.040Z,99486.89
2023-03-23T23:40:15.699Z,99485.89
2023-03-23T23:42:46.603Z,99488.70
2023-03-23T23:45:16.465Z,99481.65
2023-03-23T23:47:47.070Z,99482.09
2023-03-23T23:50:16.064Z,99483.27
2023-03-23T23:52:45.462Z,99476.27
2023-03-23T23:55:18.362Z,99473.74
2023-03-23T23:57:48.484Z,99474.73
